sensor_id;sensor_type;location;lat;lon;timestamp;P1;durP1;ratioP1;P2;durP2;ratioP2
32455;SDS011;18912;43.270;27.942;2023-02-25T00:00:04;30.10;;;11.23;;
32455;SDS011;18912;43.270;27.942;2023-02-25T00:02:47;32.80;;;11.05;;
32455;SDS011;18912;43.270;27.942;2023-02-25T00:05:17;25.65;;;11.77;;
32455;SDS011;18912;43.270;27.942;2023-02-25T00:10:09;29.55;;;12.00;;
32455;SDS011;18912;43.270;27.942;2023-02-25T00:12:36;35.95;;;12.95;;
32455;SDS011;18912;43.270;27.942;2023-02-25T00:15:03;35.42;;;12.88;;
32455;SDS011;18912;43.270;27.942;2023-02-25T00:17:30;28.25;;;12.18;;
32455;SDS011;18912;43.270;27.942;2023-02-25T00:19:56;35.05;;;12.38;;
32455;SDS011;18912;43.270;27.942;2023-02-25T00:22:22;29.87;;;12.53;;
32455;SDS011;18912;43.270;27.942;2023-02-25T00:24:51;22.92;;;11.52;;
32455;SDS011;18912;43.270;27.942;2023-02-25T00:27:17;34.42;;;12.95;;
32455;SDS011;18912;43.270;27.942;2023-02-25T00:29:43;27.25;;;8.48;;
32455;SDS011;18912;43.270;27.942;2023-02-25T00:32:09;33.80;;;12.83;;
32455;SDS011;18912;43.270;27.942;2023-02-25T00:34:34;37.63;;;13.03;;
32455;SDS011;18912;43.270;27.942;2023-02-25T00:36:59;29.13;;;12.93;;
32455;SDS011;18912;43.270;27.942;2023-02-25T00:39:25;27.87;;;14.00;;
32455;SDS011;18912;43.270;27.942;2023-02-25T00:42:05;26.40;;;12.30;;
32455;SDS011;18912;43.270;27.942;2023-02-25T00:44:32;31.30;;;13.52;;
32455;SDS011;18912;43.270;27.942;2023-02-25T00:46:58;38.67;;;14.53;;
32455;SDS011;18912;43.270;27.942;2023-02-25T00:49:23;33.50;;;14.70;;
32455;SDS011;18912;43.270;27.942;2023-02-25T00:51:51;31.77;;;12.98;;
32455;SDS011;18912;43.270;27.942;2023-02-25T00:54:17;40.00;;;14.65;;
32455;SDS011;18912;43.270;27.942;2023-02-25T00:56:42;39.23;;;14.40;;
32455;SDS011;18912;43.270;27.942;2023-02-25T00:59:08;35.23;;;15.00;;
32455;SDS011;18912;43.270;27.942;2023-02-25T01:01:34;30.23;;;13.37;;
32455;SDS011;18912;43.270;27.942;2023-02-25T01:04:05;30.92;;;13.05;;
32455;SDS011;18912;43.270;27.942;2023-02-25T01:06:31;32.70;;;14.02;;
32455;SDS011;18912;43.270;27.942;2023-02-25T01:08:58;32.78;;;13.15;;
32455;SDS011;18912;43.270;27.942;2023-02-25T01:11:25;32.47;;;14.63;;
32455;SDS011;18912;43.270;27.942;2023-02-25T01:13:56;43.58;;;15.98;;
32455;SDS011;18912;43.270;27.942;2023-02-25T01:16:24;40.03;;;15.18;;
32455;SDS011;18912;43.270;27.942;2023-02-25T01:18:52;33.83;;;14.27;;
32455;SDS011;18912;43.270;27.942;2023-02-25T01:21:20;35.08;;;15.18;;
32455;SDS011;18912;43.270;27.942;2023-02-25T01:23:52;39.45;;;15.23;;
32455;SDS011;18912;43.270;27.942;2023-02-25T01:26:23;42.50;;;16.42;;
32455;SDS011;18912;43.270;27.942;2023-02-25T01:28:49;38.63;;;15.85;;
32455;SDS011;18912;43.270;27.942;2023-02-25T01:31:16;34.33;;;15.93;;
32455;SDS011;18912;43.270;27.942;2023-02-25T01:33:43;44.30;;;15.77;;
32455;SDS011;18912;43.270;27.942;2023-02-25T01:36:09;36.30;;;16.77;;
32455;SDS011;18912;43.270;27.942;2023-02-25T01:38:34;36.77;;;15.40;;
32455;SDS011;18912;43.270;27.942;2023-02-25T01:41:00;31.43;;;14.93;;
32455;SDS011;18912;43.270;27.942;2023-02-25T01:43:27;43.88;;;16.80;;
32455;SDS011;18912;43.270;27.942;2023-02-25T01:45:53;36.40;;;16.65;;
32455;SDS011;18912;43.270;27.942;2023-02-25T01:48:19;36.10;;;15.48;;
32455;SDS011;18912;43.270;27.942;2023-02-25T01:50:49;35.78;;;15.20;;
32455;SDS011;18912;43.270;27.942;2023-02-25T01:53:20;36.92;;;15.43;;
32455;SDS011;18912;43.270;27.942;2023-02-25T01:55:49;33.47;;;14.82;;
32455;SDS011;18912;43.270;27.942;2023-02-25T01:58:15;40.78;;;15.15;;
32455;SDS011;18912;43.270;27.942;2023-02-25T02:00:42;41.63;;;16.15;;
32455;SDS011;18912;43.270;27.942;2023-02-25T02:03:08;33.90;;;15.68;;
32455;SDS011;18912;43.270;27.942;2023-02-25T02:08:33;40.00;;;16.65;;
32455;SDS011;18912;43.270;27.942;2023-02-25T02:11:00;35.47;;;15.18;;
32455;SDS011;18912;43.270;27.942;2023-02-25T02:13:27;42.95;;;15.52;;
32455;SDS011;18912;43.270;27.942;2023-02-25T02:16:07;37.50;;;15.63;;
32455;SDS011;18912;43.270;27.942;2023-02-25T02:18:39;30.38;;;16.23;;
32455;SDS011;18912;43.270;27.942;2023-02-25T02:39:53;41.38;;;16.58;;
32455;SDS011;18912;43.270;27.942;2023-02-25T02:42:37;36.75;;;15.20;;
32455;SDS011;18912;43.270;27.942;2023-02-25T02:47:53;33.67;;;15.85;;
32455;SDS011;18912;43.270;27.942;2023-02-25T02:52:56;43.85;;;18.02;;
32455;SDS011;18912;43.270;27.942;2023-02-25T02:55:27;44.95;;;18.75;;
32455;SDS011;18912;43.270;27.942;2023-02-25T02:58:00;54.78;;;17.65;;
32455;SDS011;18912;43.270;27.942;2023-02-25T03:00:33;41.08;;;17.92;;
32455;SDS011;18912;43.270;27.942;2023-02-25T03:03:25;45.65;;;18.33;;
32455;SDS011;18912;43.270;27.942;2023-02-25T03:06:00;41.45;;;17.15;;
32455;SDS011;18912;43.270;27.942;2023-02-25T03:08:27;39.55;;;16.55;;
32455;SDS011;18912;43.270;27.942;2023-02-25T03:10:54;46.10;;;18.38;;
32455;SDS011;18912;43.270;27.942;2023-02-25T03:13:20;44.13;;;18.50;;
32455;SDS011;18912;43.270;27.942;2023-02-25T03:15:46;41.72;;;17.25;;
32455;SDS011;18912;43.270;27.942;2023-02-25T03:18:19;36.50;;;17.52;;
32455;SDS011;18912;43.270;27.942;2023-02-25T03:20:51;41.35;;;17.95;;
32455;SDS011;18912;43.270;27.942;2023-02-25T03:23:22;40.97;;;18.73;;
32455;SDS011;18912;43.270;27.942;2023-02-25T03:26:13;47.35;;;18.85;;
32455;SDS011;18912;43.270;27.942;2023-02-25T03:28:54;91.35;;;32.90;;
32455;SDS011;18912;43.270;27.942;2023-02-25T03:34:14;56.63;;;25.15;;
32455;SDS011;18912;43.270;27.942;2023-02-25T03:36:45;57.38;;;19.85;;
32455;SDS011;18912;43.270;27.942;2023-02-25T03:39:17;45.67;;;18.30;;
32455;SDS011;18912;43.270;27.942;2023-02-25T03:41:45;42.88;;;20.42;;
32455;SDS011;18912;43.270;27.942;2023-02-25T03:44:18;36.85;;;18.05;;
32455;SDS011;18912;43.270;27.942;2023-02-25T03:46:59;43.65;;;19.25;;
32455;SDS011;18912;43.270;27.942;2023-02-25T03:49:29;45.30;;;18.40;;
32455;SDS011;18912;43.270;27.942;2023-02-25T03:52:00;38.42;;;17.55;;
32455;SDS011;18912;43.270;27.942;2023-02-25T03:54:30;41.03;;;17.98;;
32455;SDS011;18912;43.270;27.942;2023-02-25T03:56:55;40.23;;;18.50;;
32455;SDS011;18912;43.270;27.942;2023-02-25T03:59:21;48.77;;;22.87;;
32455;SDS011;18912;43.270;27.942;2023-02-25T04:01:52;49.05;;;21.35;;
32455;SDS011;18912;43.270;27.942;2023-02-25T04:04:19;43.95;;;19.08;;
32455;SDS011;18912;43.270;27.942;2023-02-25T04:06:45;47.83;;;18.70;;
32455;SDS011;18912;43.270;27.942;2023-02-25T04:09:11;51.08;;;18.48;;
32455;SDS011;18912;43.270;27.942;2023-02-25T04:11:37;36.57;;;17.80;;
32455;SDS011;18912;43.270;27.942;2023-02-25T04:14:02;30.40;;;14.60;;
32455;SDS011;18912;43.270;27.942;2023-02-25T04:16:27;40.03;;;19.03;;
32455;SDS011;18912;43.270;27.942;2023-02-25T04:18:53;46.93;;;21.27;;
32455;SDS011;18912;43.270;27.942;2023-02-25T04:21:29;44.23;;;19.43;;
32455;SDS011;18912;43.270;27.942;2023-02-25T04:23:57;44.03;;;19.67;;
32455;SDS011;18912;43.270;27.942;2023-02-25T04:26:23;47.57;;;19.77;;
32455;SDS011;18912;43.270;27.942;2023-02-25T04:28:49;54.08;;;21.48;;
32455;SDS011;18912;43.270;27.942;2023-02-25T04:31:14;56.20;;;20.57;;
32455;SDS011;18912;43.270;27.942;2023-02-25T04:33:39;43.70;;;19.53;;
32455;SDS011;18912;43.270;27.942;2023-02-25T04:36:05;45.83;;;19.37;;
32455;SDS011;18912;43.270;27.942;2023-02-25T04:39:07;52.15;;;20.33;;
32455;SDS011;18912;43.270;27.942;2023-02-25T04:44:00;51.42;;;20.73;;
32455;SDS011;18912;43.270;27.942;2023-02-25T04:46:30;58.45;;;21.70;;
32455;SDS011;18912;43.270;27.942;2023-02-25T04:48:56;47.95;;;20.25;;
32455;SDS011;18912;43.270;27.942;2023-02-25T04:51:22;50.38;;;21.58;;
32455;SDS011;18912;43.270;27.942;2023-02-25T04:53:48;58.23;;;23.83;;
32455;SDS011;18912;43.270;27.942;2023-02-25T04:56:14;55.03;;;21.77;;
32455;SDS011;18912;43.270;27.942;2023-02-25T04:58:39;51.47;;;20.88;;
32455;SDS011;18912;43.270;27.942;2023-02-25T05:01:06;48.33;;;22.20;;
32455;SDS011;18912;43.270;27.942;2023-02-25T05:03:33;52.60;;;21.52;;
32455;SDS011;18912;43.270;27.942;2023-02-25T05:05:59;57.28;;;22.27;;
32455;SDS011;18912;43.270;27.942;2023-02-25T05:08:25;56.88;;;22.98;;
32455;SDS011;18912;43.270;27.942;2023-02-25T05:10:51;46.25;;;22.58;;
32455;SDS011;18912;43.270;27.942;2023-02-25T05:13:17;69.83;;;22.53;;
32455;SDS011;18912;43.270;27.942;2023-02-25T05:15:44;47.95;;;20.92;;
32455;SDS011;18912;43.270;27.942;2023-02-25T05:18:09;45.73;;;20.57;;
32455;SDS011;18912;43.270;27.942;2023-02-25T05:20:45;49.37;;;19.60;;
32455;SDS011;18912;43.270;27.942;2023-02-25T05:23:11;47.43;;;21.23;;
32455;SDS011;18912;43.270;27.942;2023-02-25T05:25:37;43.37;;;20.97;;
32455;SDS011;18912;43.270;27.942;2023-02-25T05:28:11;50.38;;;21.70;;
32455;SDS011;18912;43.270;27.942;2023-02-25T05:30:37;46.55;;;21.50;;
32455;SDS011;18912;43.270;27.942;2023-02-25T05:33:04;48.08;;;20.17;;
32455;SDS011;18912;43.270;27.942;2023-02-25T05:35:31;49.85;;;20.60;;
32455;SDS011;18912;43.270;27.942;2023-02-25T05:37:57;48.20;;;21.90;;
32455;SDS011;18912;43.270;27.942;2023-02-25T05:40:23;56.95;;;22.65;;
32455;SDS011;18912;43.270;27.942;2023-02-25T05:42:49;53.90;;;21.92;;
32455;SDS011;18912;43.270;27.942;2023-02-25T05:45:14;54.67;;;22.23;;
32455;SDS011;18912;43.270;27.942;2023-02-25T05:47:42;54.80;;;25.17;;
32455;SDS011;18912;43.270;27.942;2023-02-25T05:52:34;53.08;;;22.55;;
32455;SDS011;18912;43.270;27.942;2023-02-25T05:54:59;48.90;;;21.43;;
32455;SDS011;18912;43.270;27.942;2023-02-25T05:57:26;50.70;;;21.15;;
32455;SDS011;18912;43.270;27.942;2023-02-25T05:59:51;41.03;;;19.83;;
32455;SDS011;18912;43.270;27.942;2023-02-25T06:02:17;43.43;;;21.60;;
32455;SDS011;18912;43.270;27.942;2023-02-25T06:04:42;48.93;;;20.20;;
32455;SDS011;18912;43.270;27.942;2023-02-25T06:07:07;47.20;;;20.53;;
32455;SDS011;18912;43.270;27.942;2023-02-25T06:09:33;50.07;;;22.30;;
32455;SDS011;18912;43.270;27.942;2023-02-25T06:12:00;44.95;;;19.90;;
32455;SDS011;18912;43.270;27.942;2023-02-25T06:14:26;39.43;;;18.93;;
32455;SDS011;18912;43.270;27.942;2023-02-25T06:16:51;49.77;;;20.63;;
32455;SDS011;18912;43.270;27.942;2023-02-25T06:19:21;39.03;;;19.00;;
32455;SDS011;18912;43.270;27.942;2023-02-25T06:24:13;41.55;;;18.30;;
32455;SDS011;18912;43.270;27.942;2023-02-25T06:26:40;40.50;;;18.92;;
32455;SDS011;18912;43.270;27.942;2023-02-25T06:29:09;49.88;;;18.65;;
32455;SDS011;18912;43.270;27.942;2023-02-25T06:31:35;41.90;;;18.00;;
32455;SDS011;18912;43.270;27.942;2023-02-25T06:34:01;35.97;;;18.53;;
32455;SDS011;18912;43.270;27.942;2023-02-25T06:36:26;44.70;;;20.37;;
32455;SDS011;18912;43.270;27.942;2023-02-25T06:38:52;43.73;;;21.63;;
32455;SDS011;18912;43.270;27.942;2023-02-25T06:41:18;40.47;;;19.57;;
32455;SDS011;18912;43.270;27.942;2023-02-25T06:43:46;44.42;;;19.63;;
32455;SDS011;18912;43.270;27.942;2023-02-25T06:46:16;86.00;;;37.38;;
32455;SDS011;18912;43.270;27.942;2023-02-25T06:48:43;43.08;;;19.83;;
32455;SDS011;18912;43.270;27.942;2023-02-25T06:51:09;49.27;;;24.93;;
32455;SDS011;18912;43.270;27.942;2023-02-25T06:53:37;48.95;;;26.90;;
32455;SDS011;18912;43.270;27.942;2023-02-25T06:56:04;63.97;;;28.70;;
32455;SDS011;18912;43.270;27.942;2023-02-25T06:58:32;45.22;;;24.08;;
32455;SDS011;18912;43.270;27.942;2023-02-25T07:00:57;69.83;;;35.03;;
32455;SDS011;18912;43.270;27.942;2023-02-25T07:03:24;63.93;;;33.43;;
32455;SDS011;18912;43.270;27.942;2023-02-25T07:05:50;65.03;;;29.42;;
32455;SDS011;18912;43.270;27.942;2023-02-25T07:08:15;45.07;;;18.87;;
32455;SDS011;18912;43.270;27.942;2023-02-25T07:10:41;66.33;;;28.53;;
32455;SDS011;18912;43.270;27.942;2023-02-25T07:13:07;37.97;;;17.93;;
32455;SDS011;18912;43.270;27.942;2023-02-25T07:15:34;38.08;;;17.73;;
32455;SDS011;18912;43.270;27.942;2023-02-25T07:18:00;45.20;;;24.02;;
32455;SDS011;18912;43.270;27.942;2023-02-25T07:20:26;34.08;;;17.13;;
32455;SDS011;18912;43.270;27.942;2023-02-25T07:22:51;32.50;;;17.40;;
32455;SDS011;18912;43.270;27.942;2023-02-25T07:25:17;34.23;;;16.90;;
32455;SDS011;18912;43.270;27.942;2023-02-25T07:27:43;35.00;;;16.27;;
32455;SDS011;18912;43.270;27.942;2023-02-25T07:30:09;40.07;;;17.83;;
32455;SDS011;18912;43.270;27.942;2023-02-25T07:32:36;37.45;;;16.15;;
32455;SDS011;18912;43.270;27.942;2023-02-25T07:35:02;40.43;;;19.30;;
32455;SDS011;18912;43.270;27.942;2023-02-25T07:37:28;35.10;;;17.35;;
32455;SDS011;18912;43.270;27.942;2023-02-25T07:39:55;34.85;;;17.67;;
32455;SDS011;18912;43.270;27.942;2023-02-25T07:42:23;38.17;;;18.17;;
32455;SDS011;18912;43.270;27.942;2023-02-25T07:44:50;41.55;;;19.98;;
32455;SDS011;18912;43.270;27.942;2023-02-25T07:47:16;46.63;;;19.17;;
32455;SDS011;18912;43.270;27.942;2023-02-25T07:49:41;34.93;;;17.03;;
32455;SDS011;18912;43.270;27.942;2023-02-25T07:52:07;36.47;;;19.70;;
32455;SDS011;18912;43.270;27.942;2023-02-25T07:54:32;38.07;;;19.80;;
32455;SDS011;18912;43.270;27.942;2023-02-25T07:56:58;42.43;;;20.60;;
32455;SDS011;18912;43.270;27.942;2023-02-25T07:59:23;41.13;;;21.70;;
32455;SDS011;18912;43.270;27.942;2023-02-25T08:01:49;44.17;;;21.10;;
32455;SDS011;18912;43.270;27.942;2023-02-25T08:04:14;40.60;;;20.67;;
32455;SDS011;18912;43.270;27.942;2023-02-25T08:06:40;38.93;;;21.50;;
32455;SDS011;18912;43.270;27.942;2023-02-25T08:09:07;41.47;;;20.80;;
32455;SDS011;18912;43.270;27.942;2023-02-25T08:11:38;53.75;;;20.63;;
32455;SDS011;18912;43.270;27.942;2023-02-25T08:14:04;47.17;;;23.02;;
32455;SDS011;18912;43.270;27.942;2023-02-25T08:16:30;49.37;;;23.53;;
32455;SDS011;18912;43.270;27.942;2023-02-25T08:18:56;43.95;;;20.58;;
32455;SDS011;18912;43.270;27.942;2023-02-25T08:21:22;53.47;;;25.13;;
32455;SDS011;18912;43.270;27.942;2023-02-25T08:23:49;45.58;;;24.15;;
32455;SDS011;18912;43.270;27.942;2023-02-25T08:26:16;45.78;;;22.33;;
32455;SDS011;18912;43.270;27.942;2023-02-25T08:28:42;46.33;;;22.88;;
32455;SDS011;18912;43.270;27.942;2023-02-25T08:31:08;51.67;;;26.23;;
32455;SDS011;18912;43.270;27.942;2023-02-25T08:33:36;47.15;;;23.20;;
32455;SDS011;18912;43.270;27.942;2023-02-25T08:36:14;50.97;;;24.90;;
32455;SDS011;18912;43.270;27.942;2023-02-25T08:38:42;54.22;;;23.25;;
32455;SDS011;18912;43.270;27.942;2023-02-25T08:43:34;65.88;;;26.20;;
32455;SDS011;18912;43.270;27.942;2023-02-25T08:46:00;41.40;;;20.95;;
32455;SDS011;18912;43.270;27.942;2023-02-25T08:48:26;55.67;;;23.20;;
32455;SDS011;18912;43.270;27.942;2023-02-25T08:50:52;53.93;;;25.13;;
32455;SDS011;18912;43.270;27.942;2023-02-25T08:53:17;74.27;;;26.17;;
32455;SDS011;18912;43.270;27.942;2023-02-25T08:55:43;53.53;;;24.87;;
32455;SDS011;18912;43.270;27.942;2023-02-25T08:58:08;35.43;;;18.97;;
32455;SDS011;18912;43.270;27.942;2023-02-25T09:00:34;64.97;;;23.60;;
32455;SDS011;18912;43.270;27.942;2023-02-25T09:03:00;35.80;;;18.55;;
32455;SDS011;18912;43.270;27.942;2023-02-25T09:05:26;39.30;;;18.70;;
32455;SDS011;18912;43.270;27.942;2023-02-25T09:07:51;43.90;;;18.43;;
32455;SDS011;18912;43.270;27.942;2023-02-25T09:10:17;40.97;;;19.70;;
32455;SDS011;18912;43.270;27.942;2023-02-25T09:12:44;50.53;;;17.80;;
32455;SDS011;18912;43.270;27.942;2023-02-25T09:15:11;48.70;;;21.02;;
32455;SDS011;18912;43.270;27.942;2023-02-25T09:17:38;44.97;;;20.23;;
32455;SDS011;18912;43.270;27.942;2023-02-25T09:20:05;54.85;;;20.25;;
32455;SDS011;18912;43.270;27.942;2023-02-25T09:22:32;31.42;;;15.77;;
32455;SDS011;18912;43.270;27.942;2023-02-25T09:24:58;40.33;;;18.00;;
32455;SDS011;18912;43.270;27.942;2023-02-25T09:27:24;33.13;;;15.30;;
32455;SDS011;18912;43.270;27.942;2023-02-25T09:29:50;44.10;;;16.70;;
32455;SDS011;18912;43.270;27.942;2023-02-25T09:32:17;36.53;;;15.83;;
32455;SDS011;18912;43.270;27.942;2023-02-25T09:34:45;42.63;;;17.90;;
32455;SDS011;18912;43.270;27.942;2023-02-25T09:37:13;40.50;;;16.90;;
32455;SDS011;18912;43.270;27.942;2023-02-25T09:39:39;36.20;;;15.05;;
32455;SDS011;18912;43.270;27.942;2023-02-25T09:42:17;35.83;;;14.38;;
32455;SDS011;18912;43.270;27.942;2023-02-25T09:44:49;39.33;;;14.23;;
32455;SDS011;18912;43.270;27.942;2023-02-25T09:47:19;30.15;;;13.93;;
32455;SDS011;18912;43.270;27.942;2023-02-25T09:49:58;37.35;;;15.63;;
32455;SDS011;18912;43.270;27.942;2023-02-25T09:52:42;48.60;;;17.23;;
32455;SDS011;18912;43.270;27.942;2023-02-25T09:55:22;30.00;;;14.60;;
32455;SDS011;18912;43.270;27.942;2023-02-25T10:03:44;37.38;;;15.07;;
32455;SDS011;18912;43.270;27.942;2023-02-25T10:17:42;47.20;;;13.32;;
32455;SDS011;18912;43.270;27.942;2023-02-25T10:25:26;35.22;;;11.45;;
32455;SDS011;18912;43.270;27.942;2023-02-25T10:28:02;35.17;;;12.20;;
32455;SDS011;18912;43.270;27.942;2023-02-25T10:33:02;38.25;;;12.30;;
32455;SDS011;18912;43.270;27.942;2023-02-25T10:35:37;33.03;;;12.00;;
32455;SDS011;18912;43.270;27.942;2023-02-25T10:38:04;31.73;;;11.32;;
32455;SDS011;18912;43.270;27.942;2023-02-25T10:40:30;25.20;;;11.00;;
32455;SDS011;18912;43.270;27.942;2023-02-25T10:42:58;26.97;;;11.83;;
32455;SDS011;18912;43.270;27.942;2023-02-25T10:45:28;24.92;;;10.10;;
32455;SDS011;18912;43.270;27.942;2023-02-25T10:51:13;28.75;;;10.85;;
32455;SDS011;18912;43.270;27.942;2023-02-25T10:53:38;36.25;;;12.13;;
32455;SDS011;18912;43.270;27.942;2023-02-25T10:56:05;30.33;;;10.82;;
32455;SDS011;18912;43.270;27.942;2023-02-25T10:58:39;43.88;;;15.35;;
32455;SDS011;18912;43.270;27.942;2023-02-25T11:01:09;43.85;;;13.48;;
32455;SDS011;18912;43.270;27.942;2023-02-25T11:03:52;23.60;;;11.10;;
32455;SDS011;18912;43.270;27.942;2023-02-25T11:06:28;23.40;;;10.38;;
32455;SDS011;18912;43.270;27.942;2023-02-25T11:08:55;35.60;;;11.98;;
32455;SDS011;18912;43.270;27.942;2023-02-25T11:16:38;25.35;;;10.25;;
32455;SDS011;18912;43.270;27.942;2023-02-25T11:21:42;31.23;;;11.35;;
32455;SDS011;18912;43.270;27.942;2023-02-25T11:24:12;25.40;;;11.07;;
32455;SDS011;18912;43.270;27.942;2023-02-25T11:26:49;22.65;;;9.77;;
32455;SDS011;18912;43.270;27.942;2023-02-25T11:29:29;34.03;;;10.27;;
32455;SDS011;18912;43.270;27.942;2023-02-25T11:32:14;26.90;;;10.23;;
32455;SDS011;18912;43.270;27.942;2023-02-25T11:34:59;32.08;;;10.77;;
32455;SDS011;18912;43.270;27.942;2023-02-25T11:40:01;25.85;;;8.73;;
32455;SDS011;18912;43.270;27.942;2023-02-25T11:42:32;24.63;;;9.43;;
32455;SDS011;18912;43.270;27.942;2023-02-25T11:44:58;28.97;;;10.70;;
32455;SDS011;18912;43.270;27.942;2023-02-25T11:47:29;23.75;;;9.38;;
32455;SDS011;18912;43.270;27.942;2023-02-25T12:00:59;28.38;;;8.85;;
32455;SDS011;18912;43.270;27.942;2023-02-25T12:17:12;37.30;;;9.27;;
32455;SDS011;18912;43.270;27.942;2023-02-25T12:30:39;31.65;;;10.15;;
32455;SDS011;18912;43.270;27.942;2023-02-25T13:05:08;35.67;;;9.48;;
32455;SDS011;18912;43.270;27.942;2023-02-25T13:18:53;39.72;;;11.82;;
32455;SDS011;18912;43.270;27.942;2023-02-25T13:21:34;33.17;;;9.30;;
32455;SDS011;18912;43.270;27.942;2023-02-25T13:24:18;37.00;;;10.18;;
32455;SDS011;18912;43.270;27.942;2023-02-25T13:27:21;35.63;;;9.80;;
32455;SDS011;18912;43.270;27.942;2023-02-25T13:38:40;35.92;;;10.65;;
32455;SDS011;18912;43.270;27.942;2023-02-25T13:46:55;49.72;;;11.57;;
32455;SDS011;18912;43.270;27.942;2023-02-25T13:58:36;28.00;;;11.27;;
32455;SDS011;18912;43.270;27.942;2023-02-25T14:01:35;37.47;;;10.75;;
32455;SDS011;18912;43.270;27.942;2023-02-25T14:24:22;42.17;;;13.73;;
32455;SDS011;18912;43.270;27.942;2023-02-25T14:29:26;26.23;;;10.05;;
32455;SDS011;18912;43.270;27.942;2023-02-25T14:32:02;37.33;;;12.82;;
32455;SDS011;18912;43.270;27.942;2023-02-25T14:34:44;45.00;;;12.18;;
32455;SDS011;18912;43.270;27.942;2023-02-25T14:45:25;41.35;;;12.63;;
32455;SDS011;18912;43.270;27.942;2023-02-25T14:56:55;28.67;;;10.40;;
32455;SDS011;18912;43.270;27.942;2023-02-25T15:24:00;43.83;;;13.57;;
32455;SDS011;18912;43.270;27.942;2023-02-25T15:26:37;42.40;;;15.53;;
32455;SDS011;18912;43.270;27.942;2023-02-25T15:29:20;31.17;;;10.93;;
32455;SDS011;18912;43.270;27.942;2023-02-25T15:32:12;33.90;;;12.65;;
32455;SDS011;18912;43.270;27.942;2023-02-25T15:37:31;31.98;;;11.52;;
32455;SDS011;18912;43.270;27.942;2023-02-25T15:42:54;31.58;;;13.32;;
32455;SDS011;18912;43.270;27.942;2023-02-25T15:55:45;38.53;;;13.27;;
32455;SDS011;18912;43.270;27.942;2023-02-25T16:01:00;31.70;;;11.20;;
32455;SDS011;18912;43.270;27.942;2023-02-25T16:08:36;41.40;;;13.90;;
32455;SDS011;18912;43.270;27.942;2023-02-25T16:16:56;30.63;;;12.43;;
32455;SDS011;18912;43.270;27.942;2023-02-25T16:19:24;30.33;;;9.68;;
32455;SDS011;18912;43.270;27.942;2023-02-25T16:22:12;34.03;;;10.07;;
32455;SDS011;18912;43.270;27.942;2023-02-25T16:24:45;26.63;;;9.05;;
32455;SDS011;18912;43.270;27.942;2023-02-25T16:30:19;44.10;;;12.82;;
32455;SDS011;18912;43.270;27.942;2023-02-25T16:35:50;33.42;;;8.80;;
32455;SDS011;18912;43.270;27.942;2023-02-25T16:40:58;26.37;;;9.00;;
32455;SDS011;18912;43.270;27.942;2023-02-25T16:43:28;36.05;;;9.38;;
32455;SDS011;18912;43.270;27.942;2023-02-25T16:48:32;30.63;;;10.15;;
32455;SDS011;18912;43.270;27.942;2023-02-25T16:51:12;32.83;;;8.75;;
32455;SDS011;18912;43.270;27.942;2023-02-25T16:53:44;31.30;;;10.00;;
32455;SDS011;18912;43.270;27.942;2023-02-25T16:56:19;28.95;;;9.98;;
32455;SDS011;18912;43.270;27.942;2023-02-25T16:58:56;35.63;;;9.27;;
32455;SDS011;18912;43.270;27.942;2023-02-25T17:01:31;25.65;;;8.60;;
32455;SDS011;18912;43.270;27.942;2023-02-25T17:04:22;27.48;;;9.30;;
32455;SDS011;18912;43.270;27.942;2023-02-25T17:09:33;34.15;;;10.00;;
32455;SDS011;18912;43.270;27.942;2023-02-25T17:11:59;42.05;;;10.13;;
32455;SDS011;18912;43.270;27.942;2023-02-25T17:14:27;26.75;;;10.52;;
32455;SDS011;18912;43.270;27.942;2023-02-25T17:16:54;33.78;;;10.05;;
32455;SDS011;18912;43.270;27.942;2023-02-25T17:19:20;34.63;;;9.60;;
32455;SDS011;18912;43.270;27.942;2023-02-25T17:21:55;35.38;;;11.13;;
32455;SDS011;18912;43.270;27.942;2023-02-25T17:24:25;33.25;;;10.85;;
32455;SDS011;18912;43.270;27.942;2023-02-25T17:26:52;33.80;;;9.88;;
32455;SDS011;18912;43.270;27.942;2023-02-25T17:29:18;28.17;;;9.60;;
32455;SDS011;18912;43.270;27.942;2023-02-25T17:31:48;25.27;;;9.27;;
32455;SDS011;18912;43.270;27.942;2023-02-25T17:36:55;36.03;;;9.82;;
32455;SDS011;18912;43.270;27.942;2023-02-25T17:39:25;35.55;;;9.57;;
32455;SDS011;18912;43.270;27.942;2023-02-25T17:41:53;34.25;;;9.57;;
32455;SDS011;18912;43.270;27.942;2023-02-25T17:47:11;24.30;;;8.75;;
32455;SDS011;18912;43.270;27.942;2023-02-25T17:49:49;29.35;;;9.18;;
32455;SDS011;18912;43.270;27.942;2023-02-25T17:52:17;42.95;;;9.60;;
32455;SDS011;18912;43.270;27.942;2023-02-25T17:54:47;33.40;;;10.45;;
32455;SDS011;18912;43.270;27.942;2023-02-25T17:57:22;23.58;;;9.43;;
32455;SDS011;18912;43.270;27.942;2023-02-25T17:59:50;20.25;;;8.55;;
32455;SDS011;18912;43.270;27.942;2023-02-25T18:02:40;29.67;;;9.27;;
32455;SDS011;18912;43.270;27.942;2023-02-25T18:07:40;37.08;;;10.10;;
32455;SDS011;18912;43.270;27.942;2023-02-25T18:10:48;25.15;;;8.80;;
32455;SDS011;18912;43.270;27.942;2023-02-25T18:12:55;26.30;;;8.80;;
32455;SDS011;18912;43.270;27.942;2023-02-25T18:15:24;28.70;;;8.98;;
32455;SDS011;18912;43.270;27.942;2023-02-25T18:18:01;29.70;;;8.65;;
32455;SDS011;18912;43.270;27.942;2023-02-25T18:23:15;28.83;;;9.75;;
32455;SDS011;18912;43.270;27.942;2023-02-25T18:25:48;36.42;;;10.05;;
32455;SDS011;18912;43.270;27.942;2023-02-25T18:28:33;38.70;;;11.48;;
32455;SDS011;18912;43.270;27.942;2023-02-25T18:30:59;37.03;;;10.50;;
32455;SDS011;18912;43.270;27.942;2023-02-25T18:33:24;41.03;;;12.50;;
32455;SDS011;18912;43.270;27.942;2023-02-25T18:35:50;35.53;;;10.93;;
32455;SDS011;18912;43.270;27.942;2023-02-25T18:38:17;50.97;;;13.23;;
32455;SDS011;18912;43.270;27.942;2023-02-25T18:40:44;31.30;;;11.65;;
32455;SDS011;18912;43.270;27.942;2023-02-25T18:43:13;52.60;;;17.77;;
32455;SDS011;18912;43.270;27.942;2023-02-25T18:45:41;25.90;;;11.43;;
32455;SDS011;18912;43.270;27.942;2023-02-25T18:48:07;31.27;;;14.18;;
32455;SDS011;18912;43.270;27.942;2023-02-25T18:50:33;29.10;;;10.53;;
32455;SDS011;18912;43.270;27.942;2023-02-25T18:52:58;33.10;;;10.90;;
32455;SDS011;18912;43.270;27.942;2023-02-25T18:55:26;36.08;;;9.90;;
32455;SDS011;18912;43.270;27.942;2023-02-25T18:57:53;31.23;;;9.93;;
32455;SDS011;18912;43.270;27.942;2023-02-25T19:00:20;30.20;;;9.20;;
32455;SDS011;18912;43.270;27.942;2023-02-25T19:02:48;26.83;;;10.57;;
32455;SDS011;18912;43.270;27.942;2023-02-25T19:05:20;28.75;;;9.88;;
32455;SDS011;18912;43.270;27.942;2023-02-25T19:07:47;25.80;;;8.77;;
32455;SDS011;18912;43.270;27.942;2023-02-25T19:10:14;34.75;;;9.35;;
32455;SDS011;18912;43.270;27.942;2023-02-25T19:12:41;27.27;;;8.32;;
32455;SDS011;18912;43.270;27.942;2023-02-25T19:15:10;25.60;;;9.70;;
32455;SDS011;18912;43.270;27.942;2023-02-25T19:17:37;30.25;;;9.05;;
32455;SDS011;18912;43.270;27.942;2023-02-25T19:20:03;24.10;;;8.83;;
32455;SDS011;18912;43.270;27.942;2023-02-25T19:22:29;19.10;;;7.88;;
32455;SDS011;18912;43.270;27.942;2023-02-25T19:24:55;32.03;;;9.73;;